createdAt,value
2018-06-12T00:00:52.814Z,21.73
2018-06-12T00:03:21.910Z,23.33
2018-06-12T00:10:50.556Z,23.90
2018-06-12T00:13:18.914Z,19.70
2018-06-12T00:15:47.382Z,20.73
2018-06-12T00:18:15.873Z,19.73
2018-06-12T00:20:44.133Z,20.50
2018-06-12T00:23:14.061Z,20.63
2018-06-12T00:25:42.391Z,21.07
2018-06-12T00:28:10.734Z,20.13
2018-06-12T00:30:39.112Z,18.97
2018-06-12T00:33:07.433Z,20.93
2018-06-12T00:35:35.715Z,21.40
2018-06-12T00:38:05.864Z,21.57
2018-06-12T00:40:34.704Z,22.07
2018-06-12T00:43:03.075Z,22.80
2018-06-12T00:45:31.620Z,22.47
2018-06-12T00:48:00.157Z,21.87
2018-06-12T00:50:29.620Z,21.47
2018-06-12T00:52:58.173Z,22.00
2018-06-12T00:55:26.715Z,25.13
2018-06-12T00:57:55.299Z,23.97
2018-06-12T01:00:24.655Z,24.83
2018-06-12T01:02:53.555Z,25.73
2018-06-12T01:05:22.191Z,27.30
2018-06-12T01:07:50.735Z,27.40
2018-06-12T01:10:19.715Z,28.80
2018-06-12T01:12:50.410Z,27.87
2018-06-12T01:15:18.945Z,29.80
2018-06-12T01:17:47.547Z,28.13
2018-06-12T01:20:16.160Z,26.10
2018-06-12T01:22:45.491Z,25.90
2018-06-12T01:25:14.315Z,26.27
2018-06-12T01:27:42.861Z,26.27
2018-06-12T01:30:11.635Z,26.40
2018-06-12T01:32:40.941Z,27.90
2018-06-12T01:35:09.520Z,28.47
2018-06-12T01:37:38.097Z,30.70
2018-06-12T01:40:06.614Z,29.57
2018-06-12T01:42:35.185Z,30.50
2018-06-12T01:45:03.761Z,29.13
2018-06-12T01:47:32.303Z,29.83
2018-06-12T01:50:01.706Z,29.43
2018-06-12T01:52:30.302Z,28.93
2018-06-12T01:54:58.834Z,27.77
2018-06-12T01:57:27.387Z,29.10
2018-06-12T01:59:55.939Z,30.23
2018-06-12T02:02:24.455Z,30.30
2018-06-12T02:04:53.851Z,27.60
2018-06-12T02:07:23.381Z,28.53
2018-06-12T02:09:51.984Z,27.13
2018-06-12T02:12:20.557Z,26.53
2018-06-12T02:14:49.769Z,26.43
2018-06-12T02:17:18.247Z,26.70
2018-06-12T02:19:46.861Z,25.30
2018-06-12T02:22:15.419Z,26.83
2018-06-12T02:24:43.994Z,25.60
2018-06-12T02:27:12.199Z,25.33
2018-06-12T02:29:41.159Z,25.43
2018-06-12T02:32:10.235Z,23.53
2018-06-12T02:34:38.739Z,23.57
2018-06-12T02:37:07.527Z,22.60
2018-06-12T02:39:36.463Z,23.77
2018-06-12T02:42:04.986Z,23.97
2018-06-12T02:44:34.536Z,24.03
2018-06-12T02:47:03.085Z,24.63
2018-06-12T02:49:31.634Z,24.03
2018-06-12T02:52:00.175Z,23.87
2018-06-12T02:54:28.775Z,23.37
2018-06-12T02:56:57.319Z,24.47
2018-06-12T02:59:26.519Z,22.47
2018-06-12T03:01:59.212Z,22.20
2018-06-12T03:04:28.187Z,21.93
2018-06-12T03:06:57.209Z,22.53
2018-06-12T03:09:25.777Z,22.17
2018-06-12T03:11:54.395Z,21.77
2018-06-12T03:14:23.256Z,22.50
2018-06-12T03:16:52.426Z,21.50
2018-06-12T03:19:21.680Z,22.47
2018-06-12T03:21:50.254Z,22.47
2018-06-12T03:24:18.891Z,22.07
2018-06-12T03:26:48.868Z,21.20
2018-06-12T03:29:17.481Z,21.77
2018-06-12T03:31:46.284Z,23.43
2018-06-12T03:34:15.455Z,23.63
2018-06-12T03:36:44.644Z,23.00
2018-06-12T03:39:13.406Z,23.53
2018-06-12T03:41:41.967Z,22.50
2018-06-12T03:44:10.970Z,23.27
2018-06-12T03:46:39.898Z,22.93
2018-06-12T03:49:08.408Z,22.33
2018-06-12T03:51:37.960Z,23.10
2018-06-12T03:54:06.881Z,23.60
2018-06-12T03:56:35.402Z,24.27
2018-06-12T03:59:03.966Z,22.70
2018-06-12T04:01:32.567Z,23.57
2018-06-12T04:04:01.098Z,23.47
2018-06-12T04:06:29.703Z,23.73
2018-06-12T04:08:58.515Z,23.97
2018-06-12T04:11:28.074Z,23.80
2018-06-12T04:13:57.285Z,24.90
2018-06-12T04:16:26.176Z,24.17
2018-06-12T04:18:56.602Z,24.07
2018-06-12T04:21:25.128Z,25.30
2018-06-12T04:23:53.614Z,25.13
2018-06-12T04:26:22.956Z,24.47
2018-06-12T04:28:51.490Z,25.53
2018-06-12T04:31:20.029Z,26.07
2018-06-12T04:33:49.017Z,26.67
2018-06-12T04:36:17.742Z,25.10
2018-06-12T04:38:46.602Z,25.97
2018-06-12T04:41:15.229Z,26.53
2018-06-12T04:43:43.726Z,26.83
2018-06-12T04:46:12.237Z,27.30
2018-06-12T04:48:40.792Z,25.57
2018-06-12T04:51:09.312Z,26.70
2018-06-12T04:53:37.843Z,27.93
2018-06-12T04:56:06.492Z,30.00
2018-06-12T04:58:35.049Z,28.00
2018-06-12T05:01:03.671Z,28.67
2018-06-12T05:03:32.222Z,27.60
2018-06-12T05:06:02.243Z,28.43
2018-06-12T05:08:30.846Z,28.70
2018-06-12T05:10:59.841Z,29.43
2018-06-12T05:13:28.751Z,30.97
2018-06-12T05:15:57.847Z,31.53
2018-06-12T05:18:26.457Z,31.43
2018-06-12T05:20:55.040Z,37.87
2018-06-12T05:23:23.591Z,33.97
2018-06-12T05:25:52.860Z,33.80
2018-06-12T05:28:22.302Z,34.27
2018-06-12T05:30:51.118Z,34.70
2018-06-12T05:33:19.647Z,33.23
2018-06-12T05:35:48.220Z,36.13
2018-06-12T05:38:16.447Z,33.70
2018-06-12T05:40:46.114Z,36.07
2018-06-12T05:43:14.647Z,37.57
2018-06-12T05:45:43.222Z,37.77
2018-06-12T05:48:11.708Z,39.10
2018-06-12T05:50:40.580Z,40.23
2018-06-12T05:53:09.045Z,41.70
2018-06-12T05:55:37.563Z,41.50
2018-06-12T05:58:06.198Z,41.43
2018-06-12T06:00:34.824Z,44.57
2018-06-12T06:03:03.417Z,43.83
2018-06-12T06:05:32.725Z,41.90
2018-06-12T06:08:01.681Z,41.07
2018-06-12T06:10:30.183Z,40.87
2018-06-12T06:12:58.706Z,39.07
2018-06-12T06:15:27.647Z,38.53
2018-06-12T06:17:57.543Z,40.60
2018-06-12T06:20:26.139Z,41.80
2018-06-12T06:22:54.666Z,40.20
2018-06-12T06:25:23.202Z,41.37
2018-06-12T06:27:51.893Z,41.73
2018-06-12T06:30:20.410Z,41.57
2018-06-12T06:32:48.978Z,39.37
2018-06-12T06:35:17.610Z,39.73
2018-06-12T06:37:46.122Z,38.50
2018-06-12T06:40:14.674Z,37.97
2018-06-12T06:42:43.379Z,39.90
2018-06-12T06:45:11.853Z,39.53
2018-06-12T06:47:40.874Z,37.23
2018-06-12T06:50:10.163Z,36.73
2018-06-12T06:52:39.121Z,36.17
2018-06-12T06:55:07.940Z,36.20
2018-06-12T06:57:36.816Z,34.90
2018-06-12T07:00:05.540Z,35.13
2018-06-12T07:02:34.382Z,36.23
2018-06-12T07:05:02.890Z,37.37
2018-06-12T07:07:31.450Z,36.57
2018-06-12T07:10:00.026Z,34.13
2018-06-12T07:12:28.665Z,33.83
2018-06-12T07:14:57.249Z,35.03
2018-06-12T07:17:25.765Z,35.77
2018-06-12T07:19:54.310Z,38.37
2018-06-12T07:22:22.945Z,41.07
2018-06-12T07:24:51.485Z,41.00
2018-06-12T07:30:02.288Z,37.77
2018-06-12T07:32:30.757Z,38.70
2018-06-12T07:34:59.951Z,37.87
2018-06-12T07:37:28.500Z,37.93
2018-06-12T07:39:57.720Z,39.30
2018-06-12T07:42:26.267Z,37.77
2018-06-12T07:44:55.047Z,37.80
2018-06-12T07:47:23.599Z,36.80
2018-06-12T07:49:52.128Z,39.43
2018-06-12T07:52:20.636Z,37.17
2018-06-12T07:54:49.164Z,38.27
2018-06-12T07:57:17.655Z,37.13
2018-06-12T07:59:46.230Z,34.10
2018-06-12T08:02:14.803Z,34.10
2018-06-12T08:04:43.418Z,33.30
2018-06-12T08:07:11.930Z,31.43
2018-06-12T08:09:40.458Z,30.43
2018-06-12T08:12:09.333Z,29.97
2018-06-12T08:14:37.823Z,29.43
2018-06-12T08:17:06.384Z,30.07
2018-06-12T08:19:34.972Z,30.20
2018-06-12T08:22:03.490Z,27.50
2018-06-12T08:24:31.998Z,26.33
2018-06-12T08:27:00.535Z,26.80
2018-06-12T08:29:29.049Z,27.50
2018-06-12T08:31:57.587Z,26.93
2018-06-12T08:34:26.101Z,25.93
2018-06-12T08:36:54.631Z,26.43
2018-06-12T08:39:23.163Z,25.67
2018-06-12T08:41:51.751Z,24.27
2018-06-12T08:44:20.286Z,23.87
2018-06-12T08:46:48.802Z,22.27
2018-06-12T08:49:17.330Z,23.63
2018-06-12T08:51:45.879Z,21.63
2018-06-12T08:54:14.402Z,20.93
2018-06-12T08:56:42.893Z,20.90
2018-06-12T08:59:11.406Z,20.63
2018-06-12T09:01:39.894Z,20.33
2018-06-12T09:04:08.414Z,20.33
2018-06-12T09:06:36.939Z,19.63
2018-06-12T09:09:06.874Z,20.57
2018-06-12T09:11:35.394Z,20.90
2018-06-12T09:14:03.921Z,20.23
2018-06-12T09:16:32.482Z,20.43
2018-06-12T09:19:01.116Z,19.60
2018-06-12T09:21:29.653Z,21.27
2018-06-12T09:23:58.199Z,20.27
2018-06-12T09:26:26.675Z,20.63
2018-06-12T09:28:55.205Z,20.57
2018-06-12T09:31:23.750Z,21.33
2018-06-12T09:33:52.288Z,20.70
2018-06-12T09:36:26.099Z,18.83
2018-06-12T09:38:54.650Z,19.77
2018-06-12T09:41:23.178Z,20.47
2018-06-12T09:43:51.835Z,18.67
2018-06-12T09:46:20.402Z,17.90
2018-06-12T09:48:48.891Z,17.83
2018-06-12T09:51:17.381Z,18.53
2018-06-12T09:53:45.894Z,19.67
2018-06-12T09:56:14.418Z,19.60
2018-06-12T09:58:42.935Z,22.27
2018-06-12T10:01:16.784Z,22.00
2018-06-12T10:03:45.318Z,19.43
2018-06-12T10:06:14.088Z,20.63
2018-06-12T10:08:42.623Z,21.00
2018-06-12T10:11:11.162Z,22.47
2018-06-12T10:13:39.653Z,22.73
2018-06-12T10:16:08.169Z,22.30
2018-06-12T10:18:36.694Z,23.43
2018-06-12T10:21:06.209Z,23.33
2018-06-12T10:23:35.347Z,24.60
2018-06-12T10:26:04.043Z,22.57
2018-06-12T10:28:32.639Z,20.33
2018-06-12T10:31:01.213Z,16.13
2018-06-12T10:33:29.820Z,15.83
2018-06-12T10:35:58.425Z,15.10
2018-06-12T10:38:27.095Z,15.40
2018-06-12T10:40:55.679Z,13.57
2018-06-12T10:43:24.241Z,13.40
2018-06-12T10:45:52.907Z,13.23
2018-06-12T10:48:21.504Z,10.10
2018-06-12T10:50:50.051Z,9.67
2018-06-12T10:53:18.563Z,11.17
2018-06-12T10:55:47.063Z,10.53
2018-06-12T10:58:15.625Z,12.47
2018-06-12T11:00:44.212Z,11.50
2018-06-12T11:03:12.735Z,12.70
2018-06-12T11:05:41.285Z,14.10
2018-06-12T11:08:09.796Z,14.07
2018-06-12T11:10:38.379Z,13.00
2018-06-12T11:13:07.046Z,11.40
2018-06-12T11:15:35.547Z,10.50
2018-06-12T11:18:04.090Z,9.70
2018-06-12T11:20:32.657Z,7.97
2018-06-12T11:23:01.781Z,6.37
2018-06-12T11:25:30.501Z,4.80
2018-06-12T11:27:59.028Z,4.87
2018-06-12T11:30:27.610Z,4.73
2018-06-12T11:32:56.203Z,4.83
2018-06-12T11:35:24.831Z,5.33
2018-06-12T11:37:53.543Z,5.40
2018-06-12T11:40:22.209Z,4.73
2018-06-12T11:42:50.958Z,4.83
2018-06-12T11:45:19.573Z,4.70
2018-06-12T11:47:48.462Z,4.60
2018-06-12T11:50:17.133Z,4.97
2018-06-12T11:52:45.777Z,4.40
2018-06-12T11:55:14.408Z,4.07
2018-06-12T11:57:43.025Z,4.50
2018-06-12T12:00:11.813Z,4.57
2018-06-12T12:02:40.474Z,4.40
2018-06-12T12:05:09.053Z,3.97
2018-06-12T12:07:37.775Z,4.80
2018-06-12T12:10:06.397Z,4.63
2018-06-12T12:12:35.029Z,4.83
2018-06-12T12:15:03.681Z,5.27
2018-06-12T12:17:32.248Z,5.23
2018-06-12T12:20:01.057Z,5.20
2018-06-12T12:22:29.729Z,5.37
2018-06-12T12:24:58.221Z,6.33
2018-06-12T12:27:26.813Z,5.57
2018-06-12T12:29:55.412Z,6.17
2018-06-12T12:32:23.996Z,6.33
2018-06-12T12:34:52.531Z,5.43
2018-06-12T12:37:21.143Z,4.87
2018-06-12T12:39:49.768Z,4.70
2018-06-12T12:42:18.437Z,4.50
2018-06-12T12:44:46.977Z,3.90
2018-06-12T12:47:15.566Z,3.70
2018-06-12T12:49:44.228Z,3.80
2018-06-12T12:52:12.753Z,4.00
2018-06-12T12:54:41.342Z,3.77
2018-06-12T13:00:00.413Z,5.10
2018-06-12T13:02:28.946Z,4.80
2018-06-12T13:04:57.557Z,5.33
2018-06-12T13:07:26.145Z,5.20
2018-06-12T13:09:54.699Z,5.70
2018-06-12T13:12:24.433Z,5.93
2018-06-12T13:14:53.309Z,6.17
2018-06-12T13:17:21.869Z,5.67
2018-06-12T13:19:50.439Z,5.70
2018-06-12T13:22:19.838Z,6.13
2018-06-12T13:24:48.440Z,5.87
2018-06-12T13:27:17.297Z,6.53
2018-06-12T13:29:45.852Z,6.53
2018-06-12T13:32:14.460Z,6.77
2018-06-12T13:34:43.050Z,6.60
2018-06-12T13:37:11.609Z,6.23
2018-06-12T13:39:40.224Z,7.43
2018-06-12T13:42:08.761Z,8.67
2018-06-12T13:44:37.346Z,10.17
2018-06-12T13:47:05.943Z,9.93
2018-06-12T13:49:34.591Z,10.27
2018-06-12T13:52:03.174Z,10.70
2018-06-12T13:54:31.749Z,10.53
2018-06-12T13:57:00.295Z,10.83
2018-06-12T13:59:28.843Z,11.30
2018-06-12T14:01:57.308Z,11.50
2018-06-12T14:04:25.862Z,12.03
2018-06-12T14:06:54.448Z,12.30
2018-06-12T14:09:22.937Z,13.47
2018-06-12T14:11:51.518Z,13.10
2018-06-12T14:14:20.125Z,12.87
2018-06-12T14:16:48.698Z,11.73
2018-06-12T14:19:17.191Z,12.27
2018-06-12T14:21:45.784Z,11.23
2018-06-12T14:24:14.375Z,10.03
2018-06-12T14:26:42.992Z,8.77
2018-06-12T14:29:11.556Z,9.20
2018-06-12T14:31:40.079Z,9.60
2018-06-12T14:34:08.713Z,8.23
2018-06-12T14:36:37.258Z,7.57
2018-06-12T14:39:08.393Z,7.50
2018-06-12T14:41:37.860Z,7.53
2018-06-12T14:44:06.990Z,7.73
2018-06-12T14:46:36.400Z,7.90
2018-06-12T14:49:04.996Z,8.70
2018-06-12T14:51:33.816Z,7.90
2018-06-12T14:54:02.365Z,8.13
2018-06-12T14:56:30.969Z,7.87
2018-06-12T14:58:59.651Z,7.80
2018-06-12T15:01:28.171Z,8.60
2018-06-12T15:03:56.701Z,7.50
2018-06-12T15:06:25.279Z,8.37
2018-06-12T15:08:56.580Z,7.57
2018-06-12T15:11:25.228Z,7.43
2018-06-12T15:13:54.840Z,7.57
2018-06-12T15:16:23.780Z,7.40
2018-06-12T15:18:52.350Z,7.23
2018-06-12T15:21:20.863Z,7.60
2018-06-12T15:23:49.440Z,6.70
2018-06-12T15:26:19.019Z,6.77
2018-06-12T15:28:47.602Z,5.97
2018-06-12T15:31:16.228Z,6.43
2018-06-12T15:33:44.774Z,7.00
2018-06-12T15:36:13.285Z,6.80
2018-06-12T15:38:42.632Z,6.97
2018-06-12T15:41:11.184Z,7.77
2018-06-12T15:43:39.806Z,6.90
2018-06-12T15:46:08.396Z,7.27
2018-06-12T15:48:37.061Z,6.87
2018-06-12T15:51:05.594Z,6.47
2018-06-12T15:53:34.238Z,6.37
2018-06-12T15:56:02.880Z,6.20
2018-06-12T15:58:31.416Z,6.70
2018-06-12T16:01:00.125Z,6.37
2018-06-12T16:03:28.679Z,6.40
2018-06-12T16:05:57.529Z,6.43
2018-06-12T16:08:26.081Z,5.77
2018-06-12T16:10:57.790Z,5.90
2018-06-12T16:13:26.400Z,5.60
2018-06-12T16:15:55.037Z,5.67
2018-06-12T16:18:23.724Z,5.97
2018-06-12T16:20:52.338Z,5.77
2018-06-12T16:23:20.968Z,5.70
2018-06-12T16:25:49.512Z,6.07
2018-06-12T16:28:18.020Z,5.80
2018-06-12T16:30:46.699Z,5.23
2018-06-12T16:33:15.303Z,5.53
2018-06-12T16:35:44.047Z,5.43
2018-06-12T16:38:12.588Z,5.10
2018-06-12T16:40:41.162Z,5.57
2018-06-12T16:43:09.771Z,5.70
2018-06-12T16:45:38.365Z,5.23
2018-06-12T16:48:07.129Z,5.60
2018-06-12T16:50:35.672Z,6.00
2018-06-12T16:53:04.244Z,5.97
2018-06-12T16:55:32.848Z,6.23
2018-06-12T16:58:01.393Z,5.50
2018-06-12T17:00:29.950Z,6.00
2018-06-12T17:02:58.538Z,5.83
2018-06-12T17:05:27.103Z,6.80
2018-06-12T17:07:55.794Z,6.30
2018-06-12T17:10:24.341Z,5.47
2018-06-12T17:12:52.881Z,5.80
2018-06-12T17:15:21.532Z,5.60
2018-06-12T17:17:50.089Z,5.67
2018-06-12T17:20:18.620Z,5.90
2018-06-12T17:22:47.319Z,5.77
2018-06-12T17:25:15.918Z,5.87
2018-06-12T17:27:44.600Z,5.63
2018-06-12T17:30:13.175Z,5.70
2018-06-12T17:32:41.779Z,5.57
2018-06-12T17:35:10.428Z,5.90
2018-06-12T17:37:39.067Z,5.67
2018-06-12T17:40:07.678Z,5.70
2018-06-12T17:42:36.243Z,5.73
2018-06-12T17:45:04.841Z,5.43
2018-06-12T17:47:33.463Z,6.20
2018-06-12T17:50:02.761Z,6.13
2018-06-12T17:52:31.494Z,6.17
2018-06-12T17:54:59.786Z,6.60
2018-06-12T17:57:28.632Z,6.30
2018-06-12T17:59:58.027Z,6.17
2018-06-12T18:02:27.033Z,5.93
2018-06-12T18:04:59.000Z,6.53
2018-06-12T18:07:28.035Z,6.00
2018-06-12T18:09:56.690Z,5.97
2018-06-12T18:12:25.302Z,5.90
2018-06-12T18:14:54.091Z,5.67
2018-06-12T18:17:23.214Z,5.90
2018-06-12T18:19:56.987Z,6.70
2018-06-12T18:22:25.664Z,6.23
2018-06-12T18:24:54.528Z,6.03
2018-06-12T18:27:23.137Z,6.17
2018-06-12T18:29:51.692Z,6.00
2018-06-12T18:32:20.201Z,6.47
2018-06-12T18:34:48.632Z,7.03
2018-06-12T18:37:17.169Z,6.77
2018-06-12T18:39:45.802Z,7.00
2018-06-12T18:42:14.577Z,7.10
2018-06-12T18:44:43.097Z,7.73
2018-06-12T18:47:11.546Z,6.97
2018-06-12T18:49:40.049Z,7.00
2018-06-12T18:52:08.493Z,7.30
2018-06-12T18:54:36.959Z,8.10
2018-06-12T18:57:05.129Z,8.70
2018-06-12T18:59:33.699Z,8.00
2018-06-12T19:02:02.215Z,7.23
2018-06-12T19:04:30.627Z,7.20
2018-06-12T19:06:59.143Z,7.37
2018-06-12T19:09:27.723Z,6.93
2018-06-12T19:11:56.186Z,8.43
2018-06-12T19:14:24.652Z,8.57
2018-06-12T19:16:53.217Z,8.50
2018-06-12T19:19:21.671Z,8.60
2018-06-12T19:21:49.854Z,8.60
2018-06-12T19:24:18.341Z,9.30
2018-06-12T19:26:46.953Z,9.37
2018-06-12T19:29:15.486Z,9.27
2018-06-12T19:31:43.990Z,9.57
2018-06-12T19:34:12.453Z,11.33
2018-06-12T19:36:40.990Z,11.90
2018-06-12T19:39:09.425Z,13.87
2018-06-12T19:41:37.914Z,15.17
2018-06-12T19:44:06.458Z,15.33
2018-06-12T19:46:34.923Z,16.03
2018-06-12T19:49:03.366Z,16.57
2018-06-12T19:51:31.870Z,16.30
2018-06-12T19:54:00.289Z,16.70
2018-06-12T19:56:28.812Z,17.10
2018-06-12T19:58:57.887Z,17.20
2018-06-12T20:01:26.511Z,16.80
2018-06-12T20:03:55.026Z,17.07
2018-06-12T20:06:23.603Z,17.00
2018-06-12T20:08:52.211Z,19.73
2018-06-12T20:11:23.652Z,19.63
2018-06-12T20:13:52.208Z,20.70
2018-06-12T20:16:20.773Z,22.73
2018-06-12T20:18:49.330Z,22.63
2018-06-12T20:21:17.954Z,24.07
2018-06-12T20:23:47.047Z,23.77
2018-06-12T20:26:15.651Z,22.63
2018-06-12T20:28:44.315Z,20.07
2018-06-12T20:31:12.876Z,16.20
2018-06-12T20:33:41.545Z,15.90
2018-06-12T20:36:10.167Z,15.17
2018-06-12T20:38:38.782Z,15.67
2018-06-12T20:41:07.488Z,16.63
2018-06-12T20:43:36.080Z,16.00
2018-06-12T20:46:04.673Z,15.30
2018-06-12T20:48:33.250Z,16.60
2018-06-12T20:51:01.932Z,17.37
2018-06-12T20:53:30.818Z,17.23
2018-06-12T20:55:59.689Z,18.50
2018-06-12T20:58:28.380Z,24.23
2018-06-12T21:00:57.279Z,25.90
2018-06-12T21:03:25.855Z,24.83
2018-06-12T21:05:54.425Z,22.53
2018-06-12T21:08:23.025Z,18.43
2018-06-12T21:10:51.575Z,16.33
2018-06-12T21:13:20.596Z,17.37
2018-06-12T21:15:49.180Z,16.50
2018-06-12T21:18:17.850Z,17.23
2018-06-12T21:20:46.501Z,15.83
2018-06-12T21:23:15.031Z,15.20
2018-06-12T21:25:43.592Z,14.60
2018-06-12T21:28:12.179Z,13.33
2018-06-12T21:30:41.043Z,14.80
2018-06-12T21:33:10.009Z,15.73
2018-06-12T21:35:38.844Z,15.87
2018-06-12T21:38:07.771Z,15.80
2018-06-12T21:40:36.627Z,16.10
2018-06-12T21:43:05.210Z,15.63
2018-06-12T21:45:33.873Z,16.80
2018-06-12T21:48:02.514Z,14.20
2018-06-12T21:50:31.714Z,14.77
2018-06-12T21:53:00.853Z,14.30
2018-06-12T21:55:29.377Z,14.37
2018-06-12T21:57:57.994Z,14.57
2018-06-12T22:00:39.586Z,14.77
2018-06-12T22:03:08.095Z,14.80
2018-06-12T22:05:36.692Z,15.03
2018-06-12T22:08:05.288Z,14.50
2018-06-12T22:10:33.479Z,14.77
2018-06-12T22:13:02.095Z,14.57
2018-06-12T22:15:30.591Z,14.13
2018-06-12T22:17:59.112Z,13.97
2018-06-12T22:20:27.750Z,14.53
2018-06-12T22:22:56.297Z,14.30
2018-06-12T22:25:24.817Z,15.03
2018-06-12T22:27:53.344Z,14.57
2018-06-12T22:30:21.845Z,13.97
2018-06-12T22:32:50.423Z,13.07
2018-06-12T22:35:18.896Z,13.20
2018-06-12T22:37:47.441Z,13.27
2018-06-12T22:40:16.113Z,12.13
2018-06-12T22:42:44.626Z,12.60
2018-06-12T22:45:13.470Z,11.90
2018-06-12T22:47:41.920Z,11.20
2018-06-12T22:50:10.495Z,12.60
2018-06-12T22:52:38.937Z,12.43
2018-06-12T22:55:07.518Z,12.80
2018-06-12T22:57:36.105Z,11.67
2018-06-12T23:00:04.640Z,11.23
2018-06-12T23:02:33.185Z,10.97
2018-06-12T23:05:01.742Z,11.80
2018-06-12T23:07:30.188Z,10.77
2018-06-12T23:09:58.629Z,11.33
2018-06-12T23:12:27.103Z,10.67
2018-06-12T23:14:56.482Z,12.10
2018-06-12T23:17:25.201Z,11.70
2018-06-12T23:20:04.877Z,12.63
2018-06-12T23:22:33.396Z,11.83
2018-06-12T23:25:02.112Z,11.87
2018-06-12T23:27:31.179Z,13.70
2018-06-12T23:29:59.687Z,12.97
2018-06-12T23:32:28.361Z,13.20
2018-06-12T23:34:57.077Z,12.93
2018-06-12T23:37:25.612Z,13.47
2018-06-12T23:39:54.102Z,13.60
2018-06-12T23:42:22.596Z,14.13
2018-06-12T23:44:51.144Z,12.50
2018-06-12T23:47:19.304Z,13.37
2018-06-12T23:49:47.986Z,13.23
2018-06-12T23:52:16.457Z,13.67
2018-06-12T23:54:44.891Z,12.73
2018-06-12T23:57:13.646Z,13.63
2018-06-12T23:59:42.545Z,14.07
